Time;durP1;ratioP1;P1;durP2;ratioP2;P2;SDS_P1;SDS_P2;PMS_P1;PMS_P2;Temp;Humidity;BMP_temperature;BMP_pressure;BME280_temperature;BME280_humidity;BME280_pressure;Samples;Min_cycle;Max_cycle;Signal;HPM_P1;HPM_P2
2021/07/06 00:01:41;;;;;;;3.55;1.33;;;;;;;18.88;83.30;100261.44;5051277;28;20495;-65
2021/07/06 00:04:09;;;;;;;4.53;1.52;;;;;;;18.82;83.59;100243.38;5042634;28;20041;-64
2021/07/06 00:06:35;;;;;;;4.38;1.38;;;;;;;18.82;83.63;100250.44;5050965;28;20048;-66
2021/07/06 00:09:03;;;;;;;2.90;1.27;;;;;;;18.81;83.42;100239.06;5046091;28;20060;-65
2021/07/06 00:11:30;;;;;;;8.52;1.60;;;;;;;18.80;83.16;100250.53;5050265;28;20163;-65
2021/07/06 00:13:57;;;;;;;3.22;1.20;;;;;;;18.76;83.20;100228.81;5049042;28;20042;-66
2021/07/06 00:16:23;;;;;;;4.07;1.08;;;;;;;18.75;83.58;100242.94;5052345;28;20473;-66
2021/07/06 00:18:50;;;;;;;5.53;1.50;;;;;;;18.72;83.48;100239.59;5055024;28;20052;-66
2021/07/06 00:21:18;;;;;;;3.47;0.98;;;;;;;18.81;83.15;100236.44;5054507;28;20510;-66
2021/07/06 00:23:45;;;;;;;6.82;1.10;;;;;;;18.78;82.46;100241.88;5055476;28;20091;-66
2021/07/06 00:26:11;;;;;;;2.42;1.00;;;;;;;18.80;82.52;100234.75;5054497;28;20048;-66
2021/07/06 00:28:37;;;;;;;2.75;0.90;;;;;;;18.77;82.69;100233.13;5054137;28;20045;-66
2021/07/06 00:31:04;;;;;;;6.00;1.05;;;;;;;18.77;82.45;100227.84;5055276;28;20056;-65
2021/07/06 00:33:31;;;;;;;5.18;1.15;;;;;;;18.84;81.76;100232.75;5054999;28;20052;-66
2021/07/06 00:35:59;;;;;;;4.78;0.85;;;;;;;18.76;82.01;100249.91;5053703;28;20053;-66
2021/07/06 00:38:27;;;;;;;2.85;0.98;;;;;;;18.76;82.03;100251.66;5054869;28;20149;-66
2021/07/06 00:40:54;;;;;;;2.35;0.80;;;;;;;18.87;81.66;100248.34;5054596;28;20091;-64
2021/07/06 00:43:20;;;;;;;3.70;1.00;;;;;;;18.75;81.79;100245.56;5054061;28;20422;-66
2021/07/06 00:45:47;;;;;;;1.92;0.88;;;;;;;18.74;81.87;100245.63;5054852;28;20049;-66
2021/07/06 00:48:13;;;;;;;3.70;0.80;;;;;;;18.74;81.66;100232.47;5054508;28;20056;-66
2021/07/06 00:50:39;;;;;;;5.25;1.27;;;;;;;18.73;81.59;100222.84;5053495;28;20049;-64
2021/07/06 00:53:06;;;;;;;2.03;0.77;;;;;;;18.73;81.91;100223.72;5054642;28;20053;-65
2021/07/06 00:55:34;;;;;;;5.30;0.90;;;;;;;18.74;81.65;100221.94;5054383;28;20047;-66
2021/07/06 00:58:01;;;;;;;5.55;1.17;;;;;;;18.76;81.66;100220.91;5053838;28;20053;-63
2021/07/06 01:00:28;;;;;;;4.93;0.88;;;;;;;18.76;81.92;100225.31;5054087;28;20103;-65
2021/07/06 01:02:55;;;;;;;5.22;1.55;;;;;;;18.77;81.85;100227.84;5054418;28;20067;-64
2021/07/06 01:05:25;;;;;;;8.70;1.15;;;;;;;18.77;81.93;100222.56;5043684;28;20053;-66
2021/07/06 01:07:52;;;;;;;4.82;1.10;;;;;;;18.76;81.98;100220.03;5034414;28;20045;-66
2021/07/06 01:10:19;;;;;;;5.35;1.50;;;;;;;18.76;81.93;100210.38;5047755;28;20053;-66
2021/07/06 01:12:48;;;;;;;4.80;1.20;;;;;;;18.75;82.16;100198.13;5050955;28;20060;-66
2021/07/06 01:15:16;;;;;;;4.18;1.50;;;;;;;18.74;82.13;100190.31;5047000;28;20053;-66
2021/07/06 01:17:44;;;;;;;5.68;1.20;;;;;;;18.81;81.61;100189.00;5050886;28;20077;-65
2021/07/06 01:20:14;;;;;;;7.55;1.35;;;;;;;18.73;81.93;100183.34;5052898;28;20048;-65
2021/07/06 01:22:44;;;;;;;4.35;1.23;;;;;;;18.67;82.22;100179.31;5053700;28;20045;-65
2021/07/06 01:25:12;;;;;;;4.57;1.10;;;;;;;18.62;82.75;100176.13;5051985;28;20533;-66
2021/07/06 01:27:40;;;;;;;7.97;1.10;;;;;;;18.61;82.73;100180.56;5053331;28;20045;-65
2021/07/06 01:30:09;;;;;;;8.13;1.20;;;;;;;18.62;82.97;100176.94;5054008;28;20056;-64
2021/07/06 01:32:35;;;;;;;6.50;1.30;;;;;;;18.58;83.05;100178.09;5053980;28;20057;-64
2021/07/06 01:35:02;;;;;;;3.90;1.20;;;;;;;18.58;83.32;100171.97;5051592;28;20052;-65
2021/07/06 01:37:28;;;;;;;3.72;1.13;;;;;;;18.59;83.39;100168.41;5053315;28;20052;-65
2021/07/06 01:39:56;;;;;;;5.03;1.33;;;;;;;18.58;83.69;100161.44;5053613;28;20176;-64
2021/07/06 01:42:23;;;;;;;2.28;0.90;;;;;;;18.61;83.45;100159.47;5053785;28;20049;-65
2021/07/06 01:45:04;;;;;;;3.97;1.17;;;;;;;18.57;83.53;100162.38;5053058;28;20544;-65
2021/07/06 01:47:31;;;;;;;7.55;1.15;;;;;;;18.60;83.65;100157.78;5053656;28;20045;-66
2021/07/06 01:49:57;;;;;;;4.47;1.20;;;;;;;18.61;83.41;100156.84;5052773;28;20056;-66
2021/07/06 01:52:24;;;;;;;6.25;1.30;;;;;;;18.63;83.39;100156.75;5053726;28;20053;-67
2021/07/06 01:54:51;;;;;;;3.55;1.35;;;;;;;18.61;83.45;100154.22;5053578;28;20057;-65
2021/07/06 01:57:19;;;;;;;3.67;1.10;;;;;;;18.64;83.13;100147.91;5052362;28;20067;-66
2021/07/06 01:59:46;;;;;;;4.60;1.10;;;;;;;18.62;82.77;100155.88;5053399;28;20045;-65
2021/07/06 02:02:13;;;;;;;3.28;1.00;;;;;;;18.62;83.19;100150.63;5053305;28;20049;-66
2021/07/06 02:04:41;;;;;;;3.70;1.15;;;;;;;18.60;82.62;100136.72;5048114;28;20052;-65
2021/07/06 02:07:07;;;;;;;5.00;1.10;;;;;;;18.61;82.74;100135.78;5045463;28;20593;-65
2021/07/06 02:09:34;;;;;;;4.60;0.90;;;;;;;18.59;82.82;100135.03;5052811;28;20506;-65
2021/07/06 02:12:00;;;;;;;2.65;1.08;;;;;;;18.54;83.01;100121.28;5052733;28;20049;-65
2021/07/06 02:14:28;;;;;;;8.23;1.35;;;;;;;18.53;83.06;100118.75;5051772;28;20126;-65
2021/07/06 02:16:55;;;;;;;3.38;1.05;;;;;;;18.54;83.22;100121.28;5044013;28;20525;-65
2021/07/06 02:19:21;;;;;;;2.92;1.00;;;;;;;18.51;83.25;100123.25;5051552;28;20060;-66
2021/07/06 02:21:48;;;;;;;5.88;1.23;;;;;;;18.48;83.58;100126.94;5053155;28;20063;-65
2021/07/06 02:24:14;;;;;;;8.23;1.27;;;;;;;18.48;83.61;100127.78;5053941;28;20056;-66
2021/07/06 02:26:41;;;;;;;3.47;1.10;;;;;;;18.46;83.86;100127.03;5032694;28;20476;-64
2021/07/06 02:29:07;;;;;;;4.97;1.30;;;;;;;18.47;84.22;100119.97;5040262;28;20391;-65
2021/07/06 02:31:35;;;;;;;6.03;2.05;;;;;;;18.42;84.21;100115.00;5052327;28;20049;-66
2021/07/06 02:34:01;;;;;;;6.88;2.03;;;;;;;18.38;84.61;100120.56;5051357;28;20418;-66
2021/07/06 02:36:28;;;;;;;4.43;1.90;;;;;;;18.38;84.87;100121.38;5051954;28;20411;-65
2021/07/06 02:38:54;;;;;;;5.18;1.98;;;;;;;18.40;84.67;100114.25;5052327;28;20418;-65
2021/07/06 02:41:21;;;;;;;5.50;2.20;;;;;;;18.42;85.13;100104.47;5052004;28;20060;-66
2021/07/06 02:43:47;;;;;;;7.25;2.15;;;;;;;18.37;85.33;100093.34;5051906;28;20048;-66
2021/07/06 02:46:13;;;;;;;7.65;2.15;;;;;;;18.39;85.51;100106.44;5052052;28;20056;-66
2021/07/06 02:48:41;;;;;;;8.55;1.95;;;;;;;18.41;85.38;100112.47;5052185;28;20061;-66
2021/07/06 02:51:08;;;;;;;4.72;1.80;;;;;;;18.43;85.23;100102.66;5051135;28;20495;-65
2021/07/06 02:53:34;;;;;;;3.38;1.77;;;;;;;18.40;85.22;100097.63;5052347;28;20485;-65
2021/07/06 02:56:01;;;;;;;4.10;1.50;;;;;;;18.44;84.69;100096.47;5051887;28;20422;-66
2021/07/06 02:58:27;;;;;;;5.70;1.30;;;;;;;18.47;84.36;100088.38;5050701;28;20052;-66
2021/07/06 03:00:54;;;;;;;4.90;1.40;;;;;;;18.47;84.29;100080.47;5052162;28;20048;-65
2021/07/06 03:03:20;;;;;;;8.48;2.30;;;;;;;18.41;84.08;100083.50;5051620;28;20514;-68
2021/07/06 03:05:48;;;;;;;7.15;1.67;;;;;;;18.47;83.95;100077.84;5037709;28;20061;-66
2021/07/06 03:08:14;;;;;;;7.90;1.40;;;;;;;18.53;83.58;100076.63;5031971;28;20080;-66
2021/07/06 03:10:41;;;;;;;4.03;1.60;;;;;;;18.44;83.39;100068.34;5035394;28;20057;-66
2021/07/06 03:13:09;;;;;;;3.92;1.00;;;;;;;18.48;82.97;100069.00;5051969;28;20060;-65
2021/07/06 03:15:37;;;;;;;5.65;1.38;;;;;;;18.48;83.04;100061.09;5049452;28;20049;-67
2021/07/06 03:18:05;;;;;;;8.20;1.30;;;;;;;18.42;83.14;100050.94;5051526;28;20489;-65
2021/07/06 03:20:32;;;;;;;4.15;1.45;;;;;;;18.42;83.26;100045.66;5050597;28;20045;-65
2021/07/06 03:23:00;;;;;;;5.22;1.45;;;;;;;18.45;82.78;100032.31;5051629;28;20091;-66
2021/07/06 03:25:28;;;;;;;5.25;1.77;;;;;;;18.42;82.79;100033.38;5051740;28;20056;-66
2021/07/06 03:27:55;;;;;;;5.05;1.35;;;;;;;18.45;82.99;100034.97;5050486;28;20123;-66
2021/07/06 03:30:23;;;;;;;6.25;1.30;;;;;;;18.41;82.70;100033.47;5051655;28;20052;-66
2021/07/06 03:32:51;;;;;;;3.25;1.10;;;;;;;18.39;83.09;100030.09;5051720;28;20144;-67
2021/07/06 03:35:18;;;;;;;4.72;1.40;;;;;;;18.52;82.36;100023.06;5050543;28;20414;-65
2021/07/06 03:37:45;;;;;;;6.90;1.35;;;;;;;18.53;82.03;100010.78;5051694;28;20052;-66
2021/07/06 03:40:14;;;;;;;6.28;1.88;;;;;;;18.42;82.66;100021.97;5050585;28;20045;-63
2021/07/06 03:42:41;;;;;;;7.30;1.55;;;;;;;18.43;82.51;100021.03;5051713;28;20041;-66
2021/07/06 03:45:09;;;;;;;5.20;1.20;;;;;;;18.55;82.08;100006.25;5050681;28;20048;-65
2021/07/06 03:47:36;;;;;;;5.43;1.30;;;;;;;18.46;82.18;100010.31;5050552;28;20056;-65
2021/07/06 03:50:04;;;;;;;6.53;1.20;;;;;;;18.53;81.74;100010.78;5050695;28;20056;-66
2021/07/06 03:52:31;;;;;;;5.07;1.20;;;;;;;18.47;81.90;100006.75;5051511;28;20049;-64
2021/07/06 03:54:57;;;;;;;6.72;1.27;;;;;;;18.50;81.51;100011.81;5051193;28;20078;-67
2021/07/06 03:57:29;;;;;;;6.45;1.48;;;;;;;18.57;81.09;99997.31;5051183;28;20071;-65
2021/07/06 03:59:56;;;;;;;7.93;1.67;;;;;;;18.61;80.74;99976.88;5050330;28;20072;-67
2021/07/06 04:02:23;;;;;;;3.42;1.23;;;;;;;18.62;81.03;99982.03;5051596;28;20071;-66
2021/07/06 04:04:49;;;;;;;3.58;1.33;;;;;;;18.64;80.97;99969.63;5047581;28;20111;-64
2021/07/06 04:07:16;;;;;;;7.85;1.50;;;;;;;18.60;81.11;99954.97;5050825;28;20099;-67
2021/07/06 04:09:42;;;;;;;5.30;1.25;;;;;;;18.66;80.55;99945.81;5050967;28;20690;-66
2021/07/06 04:12:09;;;;;;;3.90;1.67;;;;;;;18.64;80.44;99943.28;5051227;28;20052;-66
2021/07/06 04:14:37;;;;;;;4.57;1.20;;;;;;;18.70;80.36;99959.63;5048724;28;20454;-66
2021/07/06 04:17:04;;;;;;;5.57;1.67;;;;;;;18.70;80.48;99972.81;5046531;28;20052;-66
2021/07/06 04:19:30;;;;;;;4.47;1.80;;;;;;;18.72;79.97;99966.47;5035150;28;20052;-66
2021/07/06 04:21:57;;;;;;;4.88;1.35;;;;;;;18.85;79.63;99966.50;5051052;28;20057;-66
2021/07/06 04:24:23;;;;;;;4.05;1.10;;;;;;;18.81;79.58;99970.31;5051102;28;20071;-67
2021/07/06 04:26:50;;;;;;;7.03;1.67;;;;;;;18.79;79.66;99965.13;5050438;28;20461;-66
2021/07/06 04:29:16;;;;;;;5.57;1.52;;;;;;;18.92;79.21;99969.59;5049944;28;20197;-66
2021/07/06 04:31:44;;;;;;;6.97;1.23;;;;;;;18.92;78.95;99982.75;5051071;28;20087;-66
2021/07/06 04:34:10;;;;;;;7.20;1.52;;;;;;;18.86;78.95;99970.00;5049627;28;20048;-66
2021/07/06 04:36:37;;;;;;;6.10;1.35;;;;;;;18.89;78.38;99977.69;5050167;28;20502;-66
2021/07/06 04:39:03;;;;;;;5.25;0.85;;;;;;;18.86;78.67;99994.56;5051097;28;20053;-66
2021/07/06 04:41:30;;;;;;;3.65;0.95;;;;;;;18.87;78.53;99996.25;5050449;28;20403;-67
2021/07/06 04:43:56;;;;;;;10.65;1.08;;;;;;;18.99;78.17;99993.78;5050180;28;20072;-66
2021/07/06 04:46:23;;;;;;;3.35;1.20;;;;;;;18.95;78.36;99990.50;5050590;28;20065;-66
2021/07/06 04:48:50;;;;;;;3.75;1.20;;;;;;;18.93;78.47;100001.13;5050444;28;20548;-66
2021/07/06 04:51:17;;;;;;;1.85;0.90;;;;;;;18.96;77.92;100010.66;5049824;28;20060;-66
2021/07/06 04:53:44;;;;;;;5.85;1.27;;;;;;;18.96;77.65;100013.28;5051039;28;20060;-65
2021/07/06 04:56:11;;;;;;;6.40;1.02;;;;;;;19.04;77.90;100008.34;5050454;28;20056;-66
2021/07/06 04:58:38;;;;;;;3.78;1.10;;;;;;;19.01;77.65;99998.00;5051464;28;20045;-66
2021/07/06 05:01:05;;;;;;;5.22;1.13;;;;;;;19.03;78.10;100000.50;5054647;28;20053;-66
2021/07/06 05:03:32;;;;;;;7.05;1.30;;;;;;;19.16;77.16;100011.94;5054323;28;20041;-66
2021/07/06 05:06:00;;;;;;;4.50;1.48;;;;;;;19.16;77.70;100022.50;5047108;28;20049;-66
2021/07/06 05:08:27;;;;;;;3.58;0.98;;;;;;;19.07;77.95;100028.38;5034232;28;20123;-66
2021/07/06 05:10:54;;;;;;;12.50;1.60;;;;;;;19.14;77.73;100047.28;5034166;28;20052;-67
2021/07/06 05:13:21;;;;;;;3.83;1.08;;;;;;;19.11;77.75;100061.50;5044497;28;20053;-66
2021/07/06 05:15:47;;;;;;;8.55;1.40;;;;;;;19.15;78.32;100064.78;5056006;28;20056;-65
2021/07/06 05:18:14;;;;;;;6.13;1.17;;;;;;;19.17;78.59;100069.00;5053730;28;20048;-64
2021/07/06 05:20:40;;;;;;;3.20;1.23;;;;;;;19.13;79.14;100059.59;5052259;28;21015;-66
2021/07/06 05:23:08;;;;;;;7.05;1.40;;;;;;;19.10;79.97;100054.53;5053983;28;20429;-65
2021/07/06 05:25:34;;;;;;;4.22;1.50;;;;;;;19.07;79.94;100058.19;5053782;28;20059;-66
2021/07/06 05:28:01;;;;;;;5.22;1.48;;;;;;;19.09;79.80;100058.94;5052140;28;20052;-66
2021/07/06 05:30:27;;;;;;;6.07;1.50;;;;;;;18.95;80.12;100073.03;5053650;28;20547;-66
2021/07/06 05:32:54;;;;;;;4.35;1.20;;;;;;;18.94;80.16;100071.34;5053641;28;20103;-66
2021/07/06 05:35:20;;;;;;;7.75;1.30;;;;;;;19.02;80.06;100077.91;5052647;28;20056;-66
2021/07/06 05:37:47;;;;;;;7.28;1.35;;;;;;;18.95;80.18;100080.94;5053414;28;20057;-66
2021/07/06 05:40:15;;;;;;;14.00;2.50;;;;;;;19.00;80.03;100061.38;5053739;28;20056;-67
2021/07/06 05:42:43;;;;;;;9.45;2.03;;;;;;;19.05;79.91;100069.78;5053605;28;20049;-66
2021/07/06 05:45:11;;;;;;;8.98;1.65;;;;;;;18.99;80.33;100084.22;5052802;28;20052;-66
2021/07/06 05:47:38;;;;;;;5.65;1.85;;;;;;;19.01;80.27;100081.50;5051808;28;20510;-67
2021/07/06 05:50:06;;;;;;;5.20;1.30;;;;;;;19.02;80.40;100085.81;5052094;28;20041;-67
2021/07/06 05:52:33;;;;;;;5.80;1.55;;;;;;;19.10;80.10;100076.47;5053831;28;20087;-67
2021/07/06 05:55:00;;;;;;;5.00;1.30;;;;;;;19.07;79.87;100081.91;5053588;28;20049;-67
2021/07/06 05:57:30;;;;;;;6.90;1.80;;;;;;;19.09;79.95;100069.50;5052295;28;20521;-69
2021/07/06 05:59:57;;;;;;;4.10;1.30;;;;;;;19.16;79.74;100069.09;5052756;28;20057;-67
2021/07/06 06:02:23;;;;;;;8.55;1.52;;;;;;;19.10;79.96;100062.44;5053432;28;20056;-67
2021/07/06 06:04:50;;;;;;;4.20;1.33;;;;;;;19.16;79.56;100043.56;5057241;28;20075;-68
2021/07/06 06:07:16;;;;;;;7.78;1.25;;;;;;;19.05;80.01;100043.44;5052978;28;20059;-66
2021/07/06 06:09:43;;;;;;;5.53;1.30;;;;;;;19.04;80.36;100050.50;5051984;28;20045;-67
2021/07/06 06:12:10;;;;;;;3.58;1.83;;;;;;;18.95;80.51;100030.88;5053235;28;20048;-68
2021/07/06 06:14:38;;;;;;;4.13;1.50;;;;;;;18.90;81.15;99980.25;5051879;28;20080;-67
2021/07/06 06:17:04;;;;;;;8.05;1.70;;;;;;;18.93;81.74;99977.41;5053067;28;20053;-67
2021/07/06 06:19:31;;;;;;;3.95;1.50;;;;;;;18.92;81.74;99988.03;5051762;28;20041;-67
2021/07/06 06:21:58;;;;;;;3.60;1.23;;;;;;;18.92;82.33;99996.78;5052842;28;20052;-67
2021/07/06 06:24:25;;;;;;;5.18;1.60;;;;;;;18.83;82.46;100002.66;5052927;28;20049;-68
2021/07/06 06:26:51;;;;;;;7.07;1.30;;;;;;;18.86;82.82;100009.53;5051325;28;20049;-67
2021/07/06 06:29:18;;;;;;;6.40;1.35;;;;;;;18.86;82.77;100015.63;5052611;28;20056;-67
2021/07/06 06:31:47;;;;;;;8.10;1.58;;;;;;;18.84;82.86;100003.50;5052945;28;20068;-68
2021/07/06 06:34:13;;;;;;;4.43;1.42;;;;;;;18.80;83.09;100008.16;5052155;28;20056;-67
2021/07/06 06:36:40;;;;;;;4.10;1.48;;;;;;;18.77;83.14;100011.81;5050895;28;20572;-67
2021/07/06 06:39:07;;;;;;;4.75;1.40;;;;;;;18.77;83.44;100001.25;5045724;28;20049;-67
2021/07/06 06:41:33;;;;;;;6.32;1.80;;;;;;;18.75;82.95;99982.09;5051978;28;20048;-67
2021/07/06 06:44:00;;;;;;;4.13;1.48;;;;;;;18.70;82.99;99980.72;5051661;28;20045;-67
2021/07/06 06:46:27;;;;;;;5.95;1.83;;;;;;;18.72;83.14;99992.81;5052120;28;20057;-67
2021/07/06 06:48:54;;;;;;;4.65;1.77;;;;;;;18.76;83.29;99977.66;5052351;28;20072;-67
2021/07/06 06:51:21;;;;;;;6.55;1.60;;;;;;;18.82;nan;99992.22;5040524;28;20053;-65
2021/07/06 06:53:47;;;;;;;4.22;1.70;;;;;;;18.72;83.37;99970.88;5050743;28;20560;-66
2021/07/06 06:56:14;;;;;;;3.97;1.33;;;;;;;18.74;83.00;99995.34;5051577;28;20049;-67
2021/07/06 06:58:40;;;;;;;3.47;1.30;;;;;;;18.76;83.29;99989.06;5051840;28;20056;-68
2021/07/06 07:01:07;;;;;;;3.92;1.30;;;;;;;18.79;82.74;99990.63;5051960;28;20403;-68
2021/07/06 07:03:33;;;;;;;4.38;1.40;;;;;;;18.90;82.18;100001.31;5051901;28;20132;-67
2021/07/06 07:06:01;;;;;;;7.45;1.50;;;;;;;18.94;82.40;100016.00;5048270;28;20056;-65
2021/07/06 07:08:27;;;;;;;6.28;1.30;;;;;;;19.05;81.44;99999.50;5052060;28;20053;-67
2021/07/06 07:10:54;;;;;;;5.72;1.10;;;;;;;19.17;80.92;100010.13;5052204;28;20155;-67
2021/07/06 07:13:20;;;;;;;5.93;1.17;;;;;;;19.21;80.62;100006.34;5051900;28;20052;-67
2021/07/06 07:15:47;;;;;;;5.25;1.38;;;;;;;19.28;79.75;100005.00;5051067;28;20053;-66
2021/07/06 07:18:13;;;;;;;2.53;1.00;;;;;;;19.30;79.71;100010.19;5051796;28;20052;-67
2021/07/06 07:20:40;;;;;;;5.60;1.30;;;;;;;19.31;79.72;100014.50;5050187;28;20396;-67
2021/07/06 07:23:07;;;;;;;2.70;1.20;;;;;;;19.36;79.46;100028.22;5051718;28;20048;-67
2021/07/06 07:25:34;;;;;;;3.50;1.33;;;;;;;19.41;78.63;100034.03;5051494;28;20056;-67
2021/07/06 07:28:00;;;;;;;3.58;1.15;;;;;;;19.40;79.05;100053.44;5051820;28;20049;-67
2021/07/06 07:30:27;;;;;;;2.80;1.30;;;;;;;19.33;79.89;100057.41;5050801;28;20052;-67
2021/07/06 07:32:53;;;;;;;2.25;0.90;;;;;;;19.44;79.28;100062.00;5051725;28;20114;-67
2021/07/06 07:35:20;;;;;;;5.78;1.33;;;;;;;19.44;79.37;100062.81;5050551;28;20045;-67
2021/07/06 07:37:47;;;;;;;5.13;1.45;;;;;;;19.45;79.44;100075.06;5050853;28;20073;-67
2021/07/06 07:40:17;;;;;;;4.90;1.70;;;;;;;19.39;79.89;100070.22;5051483;28;20057;-67
2021/07/06 07:42:43;;;;;;;9.75;2.00;;;;;;;19.46;80.01;100081.19;5051495;28;20053;-67
2021/07/06 07:45:11;;;;;;;4.15;1.50;;;;;;;19.41;80.39;100079.69;5050135;28;20060;-67
2021/07/06 07:47:38;;;;;;;3.13;1.38;;;;;;;19.42;80.15;100075.25;5051145;28;20053;-68
2021/07/06 07:50:06;;;;;;;5.00;1.70;;;;;;;19.51;79.99;100082.56;5050161;28;20049;-67
2021/07/06 07:52:33;;;;;;;3.72;1.25;;;;;;;19.43;80.35;100090.13;5040191;28;20045;-67
2021/07/06 07:55:00;;;;;;;5.18;1.52;;;;;;;19.51;80.35;100087.00;5051378;28;20060;-68
2021/07/06 07:57:27;;;;;;;7.38;1.70;;;;;;;19.56;79.85;100093.66;5050660;28;20127;-67
2021/07/06 07:59:55;;;;;;;4.82;1.80;;;;;;;19.55;80.35;100102.50;5051503;28;20056;-67
2021/07/06 08:02:22;;;;;;;5.22;1.60;;;;;;;19.57;80.68;100100.63;5051462;28;20079;-67
2021/07/06 08:04:49;;;;;;;6.78;1.73;;;;;;;19.67;80.56;100100.00;5049994;28;20418;-68
2021/07/06 08:07:16;;;;;;;6.97;1.75;;;;;;;19.76;80.07;100098.53;5036733;28;20050;-67
2021/07/06 08:09:43;;;;;;;5.93;1.35;;;;;;;19.85;79.98;100100.53;5047167;28;20048;-68
2021/07/06 08:12:10;;;;;;;5.95;2.10;;;;;;;19.86;79.49;100102.28;5051095;28;20049;-67
2021/07/06 08:14:38;;;;;;;3.80;1.48;;;;;;;20.02;79.46;100094.13;5050089;28;20106;-68
2021/07/06 08:17:04;;;;;;;4.75;1.20;;;;;;;20.12;78.28;100104.88;5050831;28;20056;-67
2021/07/06 08:19:31;;;;;;;4.22;1.42;;;;;;;20.06;78.79;100106.16;5049961;28;20049;-68
2021/07/06 08:21:59;;;;;;;7.72;1.58;;;;;;;20.08;78.81;100104.25;5051022;28;20049;-68
2021/07/06 08:24:26;;;;;;;4.82;1.77;;;;;;;20.09;79.07;100111.25;5050959;28;20041;-68
2021/07/06 08:26:52;;;;;;;4.88;1.42;;;;;;;20.16;78.92;100107.22;5049971;28;20053;-67
2021/07/06 08:29:19;;;;;;;4.97;1.60;;;;;;;20.16;78.63;100101.09;5050528;28;20055;-66
2021/07/06 08:31:47;;;;;;;4.82;1.73;;;;;;;20.19;78.74;100093.81;5051457;28;20084;-66
2021/07/06 08:34:13;;;;;;;5.53;1.77;;;;;;;20.42;77.58;100096.59;5053309;28;20079;-66
2021/07/06 08:36:40;;;;;;;5.57;1.58;;;;;;;20.46;77.33;100102.53;5046206;28;20519;-68
2021/07/06 08:39:06;;;;;;;9.38;2.00;;;;;;;20.52;77.58;100091.50;5053406;28;20122;-68
2021/07/06 08:41:35;;;;;;;7.05;1.90;;;;;;;20.61;77.63;100092.66;5055066;28;20056;-67
2021/07/06 08:44:01;;;;;;;10.77;3.17;;;;;;;20.71;76.72;100100.75;5055086;28;20053;-67
2021/07/06 08:46:30;;;;;;;6.38;1.70;;;;;;;20.76;76.61;100107.44;5061917;28;20052;-68
2021/07/06 08:48:59;;;;;;;4.88;1.80;;;;;;;20.93;74.71;100108.00;5053911;28;20049;-68
2021/07/06 08:51:25;;;;;;;8.35;1.60;;;;;;;21.05;74.90;100107.09;5037120;28;20060;-66
2021/07/06 08:53:52;;;;;;;9.80;1.50;;;;;;;21.32;73.79;100113.94;5054481;28;20048;-67
2021/07/06 08:56:19;;;;;;;2.80;1.23;;;;;;;21.56;71.25;100105.13;5053985;28;20081;-66
2021/07/06 08:58:45;;;;;;;2.38;0.90;;;;;;;21.65;69.64;100109.75;5053554;28;20128;-68
2021/07/06 09:01:13;;;;;;;7.10;1.30;;;;;;;21.58;69.58;100104.06;5054616;28;20514;-68
2021/07/06 09:03:53;;;;;;;3.22;0.80;;;;;;;21.58;68.98;100112.00;5053934;28;20123;-67
2021/07/06 09:06:21;;;;;;;3.28;1.10;;;;;;;21.56;68.59;100103.31;5046968;28;20462;-67
2021/07/06 09:08:52;;;;;;;3.53;1.05;;;;;;;21.45;67.96;100100.66;5034415;28;20426;-68
2021/07/06 09:11:19;;;;;;;2.38;0.70;;;;;;;21.48;67.78;100116.28;5034330;28;20455;-68
2021/07/06 09:13:45;;;;;;;4.05;0.90;;;;;;;21.37;67.97;100122.41;5050016;28;20056;-68
2021/07/06 09:16:21;;;;;;;3.60;0.80;;;;;;;21.30;68.43;100123.81;5054026;28;20083;-66
2021/07/06 09:18:48;;;;;;;2.83;0.77;;;;;;;21.34;68.11;100114.69;5053784;28;20072;-68
2021/07/06 09:21:15;;;;;;;4.20;1.00;;;;;;;21.34;67.87;100121.78;5053584;28;20052;-68
2021/07/06 09:23:43;;;;;;;1.90;0.68;;;;;;;21.34;68.12;100119.13;5054128;28;20053;-66
2021/07/06 09:26:13;;;;;;;3.05;0.70;;;;;;;21.36;67.81;100128.63;5053477;28;20045;-68
2021/07/06 09:28:41;;;;;;;2.97;0.88;;;;;;;21.36;68.26;100128.63;5052868;28;20111;-68
2021/07/06 09:31:19;;;;;;;1.88;0.70;;;;;;;21.48;67.72;100126.88;5054110;28;20517;-67
2021/07/06 09:33:51;;;;;;;3.30;0.60;;;;;;;21.46;68.27;100120.84;5053946;28;20089;-67
2021/07/06 09:36:32;;;;;;;3.58;0.90;;;;;;;21.62;67.51;100117.91;5045154;28;20454;-68
2021/07/06 09:39:09;;;;;;;4.18;0.90;;;;;;;21.70;67.25;100128.78;5035540;28;20419;-66
2021/07/06 09:41:36;;;;;;;5.65;1.00;;;;;;;21.71;65.36;100133.09;5053455;28;20057;-68
2021/07/06 09:44:19;;;;;;;4.82;0.95;;;;;;;21.66;65.36;100131.78;5042475;28;20499;-68
2021/07/06 09:46:47;;;;;;;3.03;0.80;;;;;;;21.69;65.27;100135.03;5051691;28;20052;-67
2021/07/06 09:49:16;;;;;;;2.80;0.82;;;;;;;21.72;66.06;100140.06;5052564;28;20790;-68
2021/07/06 09:51:42;;;;;;;1.70;0.63;;;;;;;21.88;64.65;100138.94;5053452;28;20053;-67
2021/07/06 09:54:10;;;;;;;1.15;0.40;;;;;;;21.88;59.94;100128.34;5053335;28;20056;-68
2021/07/06 09:56:42;;;;;;;2.83;0.70;;;;;;;21.65;60.05;100128.28;5053340;28;20055;-66
2021/07/06 09:59:08;;;;;;;3.33;0.52;;;;;;;21.73;59.26;100136.47;5052382;28;20503;-67
2021/07/06 10:01:35;;;;;;;1.75;0.50;;;;;;;21.72;59.02;100131.31;5053456;28;20049;-67
2021/07/06 10:04:01;;;;;;;3.67;0.63;;;;;;;21.83;58.84;100144.56;5052395;28;20557;-67
2021/07/06 10:06:30;;;;;;;2.50;0.65;;;;;;;21.82;58.58;100152.63;5044184;28;20525;-68
2021/07/06 10:08:58;;;;;;;2.28;0.60;;;;;;;22.01;57.43;100144.94;5053380;28;20052;-67
2021/07/06 10:11:26;;;;;;;2.05;0.60;;;;;;;22.03;57.72;100158.09;5052931;28;20455;-68
2021/07/06 10:13:55;;;;;;;2.15;0.80;;;;;;;22.21;57.42;100147.84;5052780;28;20049;-66
2021/07/06 10:16:22;;;;;;;4.13;0.70;;;;;;;22.05;52.74;100145.59;5052609;28;20048;-66
2021/07/06 10:18:49;;;;;;;2.45;0.45;;;;;;;22.11;53.78;100153.03;5052804;28;20056;-66
2021/07/06 10:21:16;;;;;;;3.58;0.65;;;;;;;22.24;54.24;100160.88;5052455;28;20473;-66
2021/07/06 10:23:43;;;;;;;3.20;0.60;;;;;;;22.30;53.51;100151.59;5052891;28;20056;-67
2021/07/06 10:26:13;;;;;;;6.22;0.80;;;;;;;22.19;52.70;100155.09;5052615;28;20156;-67
2021/07/06 10:28:41;;;;;;;4.95;1.15;;;;;;;22.15;52.46;100158.94;5051368;28;20048;-67
2021/07/06 10:31:15;;;;;;;3.92;0.80;;;;;;;22.02;53.21;100167.00;5052770;28;20052;-67
2021/07/06 10:33:42;;;;;;;3.20;0.70;;;;;;;22.16;52.70;100164.09;5048768;28;20067;-67
2021/07/06 10:36:10;;;;;;;6.15;1.00;;;;;;;22.04;52.36;100173.84;5051192;28;20680;-66
2021/07/06 10:38:42;;;;;;;2.75;0.60;;;;;;;22.13;53.26;100180.25;5050912;28;20498;-66
2021/07/06 10:41:13;;;;;;;2.30;0.82;;;;;;;22.12;53.61;100196.25;5052418;28;20075;-67
2021/07/06 10:43:55;;;;;;;3.50;0.70;;;;;;;22.23;53.90;100188.31;5051637;28;20422;-66
2021/07/06 10:46:31;;;;;;;3.67;0.68;;;;;;;22.55;53.24;100195.59;5051133;28;20045;-65
2021/07/06 10:49:00;;;;;;;6.55;0.95;;;;;;;22.53;52.72;100192.22;5043401;28;20091;-67
2021/07/06 10:51:50;;;;;;;6.78;0.98;;;;;;;22.59;52.91;100190.91;5037616;28;20045;-67
2021/07/06 10:54:22;;;;;;;8.07;1.15;;;;;;;22.69;50.81;100186.56;5052813;28;20049;-68
2021/07/06 10:56:51;;;;;;;3.55;0.82;;;;;;;22.81;50.86;100188.25;5052078;28;20479;-66
2021/07/06 10:59:24;;;;;;;4.70;0.80;;;;;;;22.94;50.63;100201.34;5051640;28;20099;-66
2021/07/06 11:02:01;;;;;;;4.03;0.57;;;;;;;22.87;49.63;100186.91;5052279;28;20049;-66
2021/07/06 11:05:09;;;;;;;1.95;0.50;;;;;;;22.86;48.91;100202.97;5051474;28;20131;-66
2021/07/06 11:07:57;;;;;;;5.68;0.80;;;;;;;22.88;49.56;100216.91;5051851;28;20087;-67
2021/07/06 11:10:41;;;;;;;3.92;0.80;;;;;;;22.86;50.32;100224.16;5051705;28;20676;-68
2021/07/06 11:13:30;;;;;;;4.97;0.90;;;;;;;23.04;50.25;100209.44;5051257;28;20056;-68
2021/07/06 11:16:00;;;;;;;4.97;0.68;;;;;;;23.17;49.17;100217.25;5052147;28;20102;-68
2021/07/06 11:18:35;;;;;;;3.63;0.70;;;;;;;23.29;48.94;100215.44;5052108;28;20087;-65
2021/07/06 11:21:01;;;;;;;8.48;1.73;;;;;;;23.21;48.88;100213.38;5051166;28;20056;-67
2021/07/06 11:23:31;;;;;;;4.25;1.05;;;;;;;23.18;47.80;100218.94;5052181;28;20063;-67
2021/07/06 11:26:01;;;;;;;6.63;0.90;;;;;;;23.24;49.45;100214.97;5051725;28;20061;-67
2021/07/06 11:28:28;;;;;;;4.65;0.90;;;;;;;23.47;49.08;100206.91;5051838;28;20095;-68
2021/07/06 11:30:57;;;;;;;2.35;0.70;;;;;;;23.82;48.56;100211.94;5051025;28;20057;-67